sensor_id;sensor_type;location;lat;lon;timestamp;P1;durP1;ratioP1;P2;durP2;ratioP2
4307;SDS011;2167;53.448;9.984;2023-04-08T00:01:01;13.97;;;6.37;;
4307;SDS011;2167;53.448;9.984;2023-04-08T00:03:26;9.27;;;4.80;;
4307;SDS011;2167;53.448;9.984;2023-04-08T00:05:53;9.87;;;5.10;;
4307;SDS011;2167;53.448;9.984;2023-04-08T00:08:19;9.87;;;6.40;;
4307;SDS011;2167;53.448;9.984;2023-04-08T00:10:44;13.00;;;5.90;;
4307;SDS011;2167;53.448;9.984;2023-04-08T00:13:10;10.07;;;5.40;;
4307;SDS011;2167;53.448;9.984;2023-04-08T00:15:36;9.83;;;5.40;;
4307;SDS011;2167;53.448;9.984;2023-04-08T00:18:01;9.63;;;6.77;;
4307;SDS011;2167;53.448;9.984;2023-04-08T00:20:27;11.33;;;5.13;;
4307;SDS011;2167;53.448;9.984;2023-04-08T00:22:53;11.40;;;5.40;;
4307;SDS011;2167;53.448;9.984;2023-04-08T00:25:18;11.73;;;4.80;;
4307;SDS011;2167;53.448;9.984;2023-04-08T00:27:44;11.87;;;5.63;;
4307;SDS011;2167;53.448;9.984;2023-04-08T00:30:10;12.97;;;6.23;;
4307;SDS011;2167;53.448;9.984;2023-04-08T00:32:35;8.57;;;5.40;;
4307;SDS011;2167;53.448;9.984;2023-04-08T00:35:01;12.20;;;5.80;;
4307;SDS011;2167;53.448;9.984;2023-04-08T00:37:28;10.00;;;4.47;;
4307;SDS011;2167;53.448;9.984;2023-04-08T00:39:53;10.40;;;5.73;;
4307;SDS011;2167;53.448;9.984;2023-04-08T00:42:19;17.93;;;6.93;;
4307;SDS011;2167;53.448;9.984;2023-04-08T00:44:46;13.20;;;5.85;;
4307;SDS011;2167;53.448;9.984;2023-04-08T00:47:12;16.03;;;6.63;;
4307;SDS011;2167;53.448;9.984;2023-04-08T00:49:41;11.77;;;5.37;;
4307;SDS011;2167;53.448;9.984;2023-04-08T00:52:07;9.50;;;5.70;;
4307;SDS011;2167;53.448;9.984;2023-04-08T00:54:34;14.70;;;4.97;;
4307;SDS011;2167;53.448;9.984;2023-04-08T00:57:01;8.63;;;5.30;;
4307;SDS011;2167;53.448;9.984;2023-04-08T00:59:27;16.50;;;6.50;;
4307;SDS011;2167;53.448;9.984;2023-04-08T01:07:32;11.33;;;5.80;;
4307;SDS011;2167;53.448;9.984;2023-04-08T01:10:22;9.87;;;4.73;;
4307;SDS011;2167;53.448;9.984;2023-04-08T01:12:48;10.43;;;5.77;;
4307;SDS011;2167;53.448;9.984;2023-04-08T01:15:17;14.80;;;6.37;;
4307;SDS011;2167;53.448;9.984;2023-04-08T01:17:44;11.90;;;6.10;;
4307;SDS011;2167;53.448;9.984;2023-04-08T01:20:11;11.90;;;6.00;;
4307;SDS011;2167;53.448;9.984;2023-04-08T01:28:17;10.83;;;5.73;;
4307;SDS011;2167;53.448;9.984;2023-04-08T01:30:43;10.43;;;5.20;;
4307;SDS011;2167;53.448;9.984;2023-04-08T01:33:12;12.37;;;5.17;;
4307;SDS011;2167;53.448;9.984;2023-04-08T01:35:40;10.10;;;5.10;;
4307;SDS011;2167;53.448;9.984;2023-04-08T01:38:07;9.57;;;5.70;;
4307;SDS011;2167;53.448;9.984;2023-04-08T01:40:34;7.73;;;4.40;;
4307;SDS011;2167;53.448;9.984;2023-04-08T01:43:01;15.80;;;7.03;;
4307;SDS011;2167;53.448;9.984;2023-04-08T01:45:29;13.60;;;5.60;;
4307;SDS011;2167;53.448;9.984;2023-04-08T01:47:55;9.25;;;5.20;;
4307;SDS011;2167;53.448;9.984;2023-04-08T01:50:22;8.53;;;4.93;;
4307;SDS011;2167;53.448;9.984;2023-04-08T01:52:50;9.67;;;4.20;;
4307;SDS011;2167;53.448;9.984;2023-04-08T01:55:17;9.90;;;5.70;;
4307;SDS011;2167;53.448;9.984;2023-04-08T01:57:45;7.77;;;3.57;;
4307;SDS011;2167;53.448;9.984;2023-04-08T02:00:13;10.50;;;4.57;;
4307;SDS011;2167;53.448;9.984;2023-04-08T02:02:42;8.53;;;4.67;;
4307;SDS011;2167;53.448;9.984;2023-04-08T02:05:08;10.10;;;3.80;;
4307;SDS011;2167;53.448;9.984;2023-04-08T02:07:34;8.00;;;5.30;;
4307;SDS011;2167;53.448;9.984;2023-04-08T02:10:00;10.67;;;5.80;;
4307;SDS011;2167;53.448;9.984;2023-04-08T02:12:26;7.87;;;4.90;;
4307;SDS011;2167;53.448;9.984;2023-04-08T02:14:52;11.27;;;4.77;;
4307;SDS011;2167;53.448;9.984;2023-04-08T02:17:20;6.23;;;4.53;;
4307;SDS011;2167;53.448;9.984;2023-04-08T02:19:56;7.77;;;4.77;;
4307;SDS011;2167;53.448;9.984;2023-04-08T02:22:36;12.60;;;6.53;;
4307;SDS011;2167;53.448;9.984;2023-04-08T02:25:12;10.23;;;5.83;;
4307;SDS011;2167;53.448;9.984;2023-04-08T02:27:39;8.10;;;4.70;;
4307;SDS011;2167;53.448;9.984;2023-04-08T02:30:07;7.13;;;4.90;;
4307;SDS011;2167;53.448;9.984;2023-04-08T02:32:34;12.93;;;6.33;;
4307;SDS011;2167;53.448;9.984;2023-04-08T02:35:01;10.00;;;5.80;;
4307;SDS011;2167;53.448;9.984;2023-04-08T02:37:27;13.87;;;6.70;;
4307;SDS011;2167;53.448;9.984;2023-04-08T02:39:54;15.63;;;6.17;;
4307;SDS011;2167;53.448;9.984;2023-04-08T02:42:20;11.03;;;5.30;;
4307;SDS011;2167;53.448;9.984;2023-04-08T02:44:46;14.50;;;6.23;;
4307;SDS011;2167;53.448;9.984;2023-04-08T02:47:11;8.93;;;5.93;;
4307;SDS011;2167;53.448;9.984;2023-04-08T02:49:37;15.23;;;6.37;;
4307;SDS011;2167;53.448;9.984;2023-04-08T02:52:02;10.93;;;5.63;;
4307;SDS011;2167;53.448;9.984;2023-04-08T02:54:28;13.23;;;6.57;;
4307;SDS011;2167;53.448;9.984;2023-04-08T02:56:54;10.37;;;5.00;;
4307;SDS011;2167;53.448;9.984;2023-04-08T02:59:20;16.80;;;6.53;;
4307;SDS011;2167;53.448;9.984;2023-04-08T03:01:45;17.40;;;6.13;;
4307;SDS011;2167;53.448;9.984;2023-04-08T03:04:11;7.03;;;4.17;;
4307;SDS011;2167;53.448;9.984;2023-04-08T03:06:37;13.97;;;6.87;;
4307;SDS011;2167;53.448;9.984;2023-04-08T03:09:02;8.50;;;5.70;;
4307;SDS011;2167;53.448;9.984;2023-04-08T03:11:29;9.30;;;5.13;;
4307;SDS011;2167;53.448;9.984;2023-04-08T03:13:55;18.13;;;6.10;;
4307;SDS011;2167;53.448;9.984;2023-04-08T03:16:21;10.03;;;5.93;;
4307;SDS011;2167;53.448;9.984;2023-04-08T03:18:48;7.33;;;4.87;;
4307;SDS011;2167;53.448;9.984;2023-04-08T03:21:14;8.57;;;4.63;;
4307;SDS011;2167;53.448;9.984;2023-04-08T03:23:40;11.17;;;5.33;;
4307;SDS011;2167;53.448;9.984;2023-04-08T03:26:05;8.63;;;4.57;;
4307;SDS011;2167;53.448;9.984;2023-04-08T03:28:31;10.33;;;5.20;;
4307;SDS011;2167;53.448;9.984;2023-04-08T03:30:56;9.80;;;4.90;;
4307;SDS011;2167;53.448;9.984;2023-04-08T03:33:22;8.60;;;5.10;;
4307;SDS011;2167;53.448;9.984;2023-04-08T03:35:48;10.80;;;5.27;;
4307;SDS011;2167;53.448;9.984;2023-04-08T03:38:13;8.87;;;6.27;;
4307;SDS011;2167;53.448;9.984;2023-04-08T03:40:39;11.20;;;6.43;;
4307;SDS011;2167;53.448;9.984;2023-04-08T03:43:04;10.60;;;5.30;;
4307;SDS011;2167;53.448;9.984;2023-04-08T03:45:30;10.73;;;5.80;;
4307;SDS011;2167;53.448;9.984;2023-04-08T03:47:56;10.63;;;5.23;;
4307;SDS011;2167;53.448;9.984;2023-04-08T03:50:21;8.87;;;5.53;;
4307;SDS011;2167;53.448;9.984;2023-04-08T03:52:47;14.57;;;7.23;;
4307;SDS011;2167;53.448;9.984;2023-04-08T03:55:13;9.87;;;5.37;;
4307;SDS011;2167;53.448;9.984;2023-04-08T03:57:38;13.60;;;7.30;;
4307;SDS011;2167;53.448;9.984;2023-04-08T04:00:05;12.77;;;6.60;;
4307;SDS011;2167;53.448;9.984;2023-04-08T04:02:31;11.87;;;6.10;;
4307;SDS011;2167;53.448;9.984;2023-04-08T04:04:57;12.20;;;6.20;;
4307;SDS011;2167;53.448;9.984;2023-04-08T04:07:22;13.73;;;6.30;;
4307;SDS011;2167;53.448;9.984;2023-04-08T04:09:48;16.90;;;8.20;;
4307;SDS011;2167;53.448;9.984;2023-04-08T04:12:18;11.00;;;7.20;;
4307;SDS011;2167;53.448;9.984;2023-04-08T04:14:43;17.10;;;7.57;;
4307;SDS011;2167;53.448;9.984;2023-04-08T04:17:09;12.93;;;7.00;;
4307;SDS011;2167;53.448;9.984;2023-04-08T04:19:34;14.53;;;8.77;;
4307;SDS011;2167;53.448;9.984;2023-04-08T04:22:00;11.13;;;6.67;;
4307;SDS011;2167;53.448;9.984;2023-04-08T04:24:26;17.13;;;7.03;;
4307;SDS011;2167;53.448;9.984;2023-04-08T04:26:51;10.90;;;5.80;;
4307;SDS011;2167;53.448;9.984;2023-04-08T04:29:17;12.00;;;5.70;;
4307;SDS011;2167;53.448;9.984;2023-04-08T04:31:42;17.97;;;8.50;;
4307;SDS011;2167;53.448;9.984;2023-04-08T04:34:09;17.50;;;8.37;;
4307;SDS011;2167;53.448;9.984;2023-04-08T04:36:35;18.50;;;7.47;;
4307;SDS011;2167;53.448;9.984;2023-04-08T04:39:00;19.13;;;8.37;;
4307;SDS011;2167;53.448;9.984;2023-04-08T04:41:26;13.40;;;7.23;;
4307;SDS011;2167;53.448;9.984;2023-04-08T04:43:52;17.50;;;8.00;;
4307;SDS011;2167;53.448;9.984;2023-04-08T04:46:17;12.87;;;8.57;;
4307;SDS011;2167;53.448;9.984;2023-04-08T04:48:43;15.00;;;7.30;;
4307;SDS011;2167;53.448;9.984;2023-04-08T04:51:09;14.23;;;6.97;;
4307;SDS011;2167;53.448;9.984;2023-04-08T04:53:34;15.83;;;9.00;;
4307;SDS011;2167;53.448;9.984;2023-04-08T04:56:00;22.70;;;7.60;;
4307;SDS011;2167;53.448;9.984;2023-04-08T04:58:26;20.73;;;7.53;;
4307;SDS011;2167;53.448;9.984;2023-04-08T05:00:51;10.70;;;7.00;;
4307;SDS011;2167;53.448;9.984;2023-04-08T05:03:17;16.00;;;7.67;;
4307;SDS011;2167;53.448;9.984;2023-04-08T05:05:43;15.10;;;7.33;;
4307;SDS011;2167;53.448;9.984;2023-04-08T05:08:08;13.03;;;7.00;;
4307;SDS011;2167;53.448;9.984;2023-04-08T05:10:34;12.87;;;6.13;;
4307;SDS011;2167;53.448;9.984;2023-04-08T05:13:00;18.63;;;8.60;;
4307;SDS011;2167;53.448;9.984;2023-04-08T05:15:25;14.97;;;7.57;;
4307;SDS011;2167;53.448;9.984;2023-04-08T05:17:51;18.00;;;9.10;;
4307;SDS011;2167;53.448;9.984;2023-04-08T05:20:16;16.63;;;7.80;;
4307;SDS011;2167;53.448;9.984;2023-04-08T05:22:42;12.67;;;7.60;;
4307;SDS011;2167;53.448;9.984;2023-04-08T05:25:09;12.50;;;6.50;;
4307;SDS011;2167;53.448;9.984;2023-04-08T05:27:35;12.03;;;5.70;;
4307;SDS011;2167;53.448;9.984;2023-04-08T05:30:01;16.30;;;6.33;;
4307;SDS011;2167;53.448;9.984;2023-04-08T05:32:26;13.67;;;6.60;;
4307;SDS011;2167;53.448;9.984;2023-04-08T05:34:53;19.27;;;7.77;;
4307;SDS011;2167;53.448;9.984;2023-04-08T05:37:19;16.00;;;7.73;;
4307;SDS011;2167;53.448;9.984;2023-04-08T05:39:44;17.45;;;8.95;;
4307;SDS011;2167;53.448;9.984;2023-04-08T05:42:10;17.77;;;6.97;;
4307;SDS011;2167;53.448;9.984;2023-04-08T05:44:37;14.43;;;7.10;;
4307;SDS011;2167;53.448;9.984;2023-04-08T05:47:05;10.67;;;6.50;;
4307;SDS011;2167;53.448;9.984;2023-04-08T05:49:32;13.57;;;7.53;;
4307;SDS011;2167;53.448;9.984;2023-04-08T05:51:58;11.17;;;6.00;;
4307;SDS011;2167;53.448;9.984;2023-04-08T05:54:23;16.27;;;7.87;;
4307;SDS011;2167;53.448;9.984;2023-04-08T05:56:49;11.47;;;6.30;;
4307;SDS011;2167;53.448;9.984;2023-04-08T05:59:14;13.90;;;7.17;;
4307;SDS011;2167;53.448;9.984;2023-04-08T06:01:40;15.43;;;7.10;;
4307;SDS011;2167;53.448;9.984;2023-04-08T06:04:05;19.27;;;7.50;;
4307;SDS011;2167;53.448;9.984;2023-04-08T06:06:31;16.47;;;7.23;;
4307;SDS011;2167;53.448;9.984;2023-04-08T06:08:57;16.67;;;9.43;;
4307;SDS011;2167;53.448;9.984;2023-04-08T06:11:22;14.23;;;8.50;;
4307;SDS011;2167;53.448;9.984;2023-04-08T06:13:48;27.17;;;7.83;;
4307;SDS011;2167;53.448;9.984;2023-04-08T06:16:14;13.47;;;7.30;;
4307;SDS011;2167;53.448;9.984;2023-04-08T06:18:43;10.80;;;6.17;;
4307;SDS011;2167;53.448;9.984;2023-04-08T06:21:09;9.50;;;5.53;;
4307;SDS011;2167;53.448;9.984;2023-04-08T06:23:35;14.37;;;7.03;;
4307;SDS011;2167;53.448;9.984;2023-04-08T06:26:01;16.33;;;7.43;;
4307;SDS011;2167;53.448;9.984;2023-04-08T06:28:30;14.80;;;6.90;;
4307;SDS011;2167;53.448;9.984;2023-04-08T06:30:56;14.83;;;6.40;;
4307;SDS011;2167;53.448;9.984;2023-04-08T06:33:22;14.23;;;6.63;;
4307;SDS011;2167;53.448;9.984;2023-04-08T06:35:48;13.87;;;6.40;;
4307;SDS011;2167;53.448;9.984;2023-04-08T06:38:13;15.50;;;6.10;;
4307;SDS011;2167;53.448;9.984;2023-04-08T06:40:39;13.97;;;5.03;;
4307;SDS011;2167;53.448;9.984;2023-04-08T06:43:05;19.90;;;7.23;;
4307;SDS011;2167;53.448;9.984;2023-04-08T06:45:34;13.17;;;7.23;;
4307;SDS011;2167;53.448;9.984;2023-04-08T06:47:59;17.20;;;8.33;;
4307;SDS011;2167;53.448;9.984;2023-04-08T06:50:25;11.30;;;6.33;;
4307;SDS011;2167;53.448;9.984;2023-04-08T06:52:51;11.13;;;6.60;;
4307;SDS011;2167;53.448;9.984;2023-04-08T06:55:16;17.47;;;5.70;;
4307;SDS011;2167;53.448;9.984;2023-04-08T06:57:42;15.10;;;7.20;;
4307;SDS011;2167;53.448;9.984;2023-04-08T07:00:08;21.77;;;7.43;;
4307;SDS011;2167;53.448;9.984;2023-04-08T07:02:34;9.87;;;5.90;;
4307;SDS011;2167;53.448;9.984;2023-04-08T07:04:59;15.07;;;6.13;;
4307;SDS011;2167;53.448;9.984;2023-04-08T07:07:25;9.47;;;6.67;;
4307;SDS011;2167;53.448;9.984;2023-04-08T07:09:50;14.83;;;6.77;;
4307;SDS011;2167;53.448;9.984;2023-04-08T07:12:16;16.47;;;8.43;;
4307;SDS011;2167;53.448;9.984;2023-04-08T07:14:44;14.27;;;6.43;;
4307;SDS011;2167;53.448;9.984;2023-04-08T07:17:10;12.40;;;5.53;;
4307;SDS011;2167;53.448;9.984;2023-04-08T07:19:35;13.20;;;7.80;;
4307;SDS011;2167;53.448;9.984;2023-04-08T07:22:01;13.43;;;6.73;;
4307;SDS011;2167;53.448;9.984;2023-04-08T07:24:27;15.63;;;8.23;;
4307;SDS011;2167;53.448;9.984;2023-04-08T07:26:52;13.67;;;8.80;;
4307;SDS011;2167;53.448;9.984;2023-04-08T07:29:20;12.53;;;6.30;;
4307;SDS011;2167;53.448;9.984;2023-04-08T07:31:45;12.63;;;7.30;;
4307;SDS011;2167;53.448;9.984;2023-04-08T07:34:11;15.07;;;7.23;;
4307;SDS011;2167;53.448;9.984;2023-04-08T07:36:40;11.57;;;5.40;;
4307;SDS011;2167;53.448;9.984;2023-04-08T07:39:14;16.27;;;7.00;;
4307;SDS011;2167;53.448;9.984;2023-04-08T07:41:40;17.63;;;7.40;;
4307;SDS011;2167;53.448;9.984;2023-04-08T07:44:05;16.90;;;7.10;;
4307;SDS011;2167;53.448;9.984;2023-04-08T07:46:35;18.40;;;7.33;;
4307;SDS011;2167;53.448;9.984;2023-04-08T07:49:02;12.93;;;6.33;;
4307;SDS011;2167;53.448;9.984;2023-04-08T07:51:27;14.73;;;6.23;;
4307;SDS011;2167;53.448;9.984;2023-04-08T07:53:57;20.13;;;7.20;;
4307;SDS011;2167;53.448;9.984;2023-04-08T07:56:23;12.80;;;7.00;;
4307;SDS011;2167;53.448;9.984;2023-04-08T07:58:49;19.17;;;7.60;;
4307;SDS011;2167;53.448;9.984;2023-04-08T08:01:18;17.53;;;8.40;;
4307;SDS011;2167;53.448;9.984;2023-04-08T08:03:46;14.20;;;6.40;;
4307;SDS011;2167;53.448;9.984;2023-04-08T08:06:12;18.30;;;8.00;;
4307;SDS011;2167;53.448;9.984;2023-04-08T08:08:38;15.40;;;6.73;;
4307;SDS011;2167;53.448;9.984;2023-04-08T08:11:03;19.60;;;7.00;;
4307;SDS011;2167;53.448;9.984;2023-04-08T08:13:29;18.87;;;9.27;;
4307;SDS011;2167;53.448;9.984;2023-04-08T08:15:55;16.93;;;9.20;;
4307;SDS011;2167;53.448;9.984;2023-04-08T08:18:21;17.83;;;7.00;;
4307;SDS011;2167;53.448;9.984;2023-04-08T08:20:46;18.20;;;6.90;;
4307;SDS011;2167;53.448;9.984;2023-04-08T08:23:12;16.70;;;7.47;;
4307;SDS011;2167;53.448;9.984;2023-04-08T08:25:37;16.30;;;6.57;;
4307;SDS011;2167;53.448;9.984;2023-04-08T08:28:03;12.43;;;6.00;;
4307;SDS011;2167;53.448;9.984;2023-04-08T08:30:29;11.73;;;7.37;;
4307;SDS011;2167;53.448;9.984;2023-04-08T08:32:55;13.93;;;6.20;;
4307;SDS011;2167;53.448;9.984;2023-04-08T08:35:23;14.83;;;6.00;;
4307;SDS011;2167;53.448;9.984;2023-04-08T08:37:48;13.17;;;5.60;;
4307;SDS011;2167;53.448;9.984;2023-04-08T08:40:14;15.23;;;6.80;;
4307;SDS011;2167;53.448;9.984;2023-04-08T08:42:40;16.70;;;7.90;;
4307;SDS011;2167;53.448;9.984;2023-04-08T08:45:13;12.90;;;6.33;;
4307;SDS011;2167;53.448;9.984;2023-04-08T08:47:39;18.55;;;8.55;;
4307;SDS011;2167;53.448;9.984;2023-04-08T08:50:05;13.03;;;7.20;;
4307;SDS011;2167;53.448;9.984;2023-04-08T08:52:31;15.60;;;7.47;;
4307;SDS011;2167;53.448;9.984;2023-04-08T08:54:57;12.27;;;6.07;;
4307;SDS011;2167;53.448;9.984;2023-04-08T08:57:23;7.97;;;5.57;;
4307;SDS011;2167;53.448;9.984;2023-04-08T08:59:49;17.03;;;7.80;;
4307;SDS011;2167;53.448;9.984;2023-04-08T09:04:58;13.80;;;5.57;;
4307;SDS011;2167;53.448;9.984;2023-04-08T09:07:28;20.13;;;7.83;;
4307;SDS011;2167;53.448;9.984;2023-04-08T09:09:55;17.93;;;7.47;;
4307;SDS011;2167;53.448;9.984;2023-04-08T09:12:22;12.87;;;6.30;;
4307;SDS011;2167;53.448;9.984;2023-04-08T09:14:48;13.73;;;5.80;;
4307;SDS011;2167;53.448;9.984;2023-04-08T09:17:14;12.97;;;6.70;;
4307;SDS011;2167;53.448;9.984;2023-04-08T09:22:54;15.70;;;7.33;;
4307;SDS011;2167;53.448;9.984;2023-04-08T09:25:27;12.80;;;8.10;;
4307;SDS011;2167;53.448;9.984;2023-04-08T09:27:57;14.30;;;7.77;;
4307;SDS011;2167;53.448;9.984;2023-04-08T09:30:23;11.27;;;6.00;;
4307;SDS011;2167;53.448;9.984;2023-04-08T09:32:51;15.77;;;8.33;;
4307;SDS011;2167;53.448;9.984;2023-04-08T09:35:18;14.03;;;6.60;;
4307;SDS011;2167;53.448;9.984;2023-04-08T09:37:44;12.70;;;6.30;;
4307;SDS011;2167;53.448;9.984;2023-04-08T09:40:10;19.60;;;8.77;;
4307;SDS011;2167;53.448;9.984;2023-04-08T09:42:39;19.43;;;7.43;;
4307;SDS011;2167;53.448;9.984;2023-04-08T09:45:08;13.50;;;7.30;;
4307;SDS011;2167;53.448;9.984;2023-04-08T09:50:21;17.00;;;7.95;;
4307;SDS011;2167;53.448;9.984;2023-04-08T09:52:52;17.10;;;6.77;;
4307;SDS011;2167;53.448;9.984;2023-04-08T09:55:23;14.20;;;7.30;;
4307;SDS011;2167;53.448;9.984;2023-04-08T09:57:51;16.03;;;6.50;;
4307;SDS011;2167;53.448;9.984;2023-04-08T10:00:37;10.47;;;5.07;;
4307;SDS011;2167;53.448;9.984;2023-04-08T10:05:52;14.70;;;6.83;;
4307;SDS011;2167;53.448;9.984;2023-04-08T10:08:26;12.50;;;6.37;;
4307;SDS011;2167;53.448;9.984;2023-04-08T10:13:52;15.33;;;6.87;;
4307;SDS011;2167;53.448;9.984;2023-04-08T10:16:23;15.60;;;7.30;;
4307;SDS011;2167;53.448;9.984;2023-04-08T10:18:54;11.40;;;7.13;;
4307;SDS011;2167;53.448;9.984;2023-04-08T10:23:59;16.53;;;7.87;;
4307;SDS011;2167;53.448;9.984;2023-04-08T10:26:31;17.50;;;9.10;;
4307;SDS011;2167;53.448;9.984;2023-04-08T10:31:43;15.60;;;8.50;;
4307;SDS011;2167;53.448;9.984;2023-04-08T10:34:21;13.67;;;6.80;;
4307;SDS011;2167;53.448;9.984;2023-04-08T10:36:55;13.67;;;7.97;;
4307;SDS011;2167;53.448;9.984;2023-04-08T10:39:38;10.20;;;6.77;;
4307;SDS011;2167;53.448;9.984;2023-04-08T10:42:13;16.80;;;7.33;;
4307;SDS011;2167;53.448;9.984;2023-04-08T10:44:51;11.30;;;5.70;;
4307;SDS011;2167;53.448;9.984;2023-04-08T10:47:27;12.53;;;5.70;;
4307;SDS011;2167;53.448;9.984;2023-04-08T10:49:56;12.70;;;6.70;;
4307;SDS011;2167;53.448;9.984;2023-04-08T10:52:26;13.70;;;8.07;;
4307;SDS011;2167;53.448;9.984;2023-04-08T10:54:52;14.20;;;7.43;;
4307;SDS011;2167;53.448;9.984;2023-04-08T10:57:24;14.13;;;7.00;;
4307;SDS011;2167;53.448;9.984;2023-04-08T10:59:51;10.67;;;6.40;;
4307;SDS011;2167;53.448;9.984;2023-04-08T11:02:17;10.27;;;6.30;;
4307;SDS011;2167;53.448;9.984;2023-04-08T11:04:43;9.40;;;5.50;;
4307;SDS011;2167;53.448;9.984;2023-04-08T11:07:08;8.63;;;6.23;;
4307;SDS011;2167;53.448;9.984;2023-04-08T11:09:34;11.87;;;5.53;;
4307;SDS011;2167;53.448;9.984;2023-04-08T11:12:00;11.97;;;6.03;;
4307;SDS011;2167;53.448;9.984;2023-04-08T11:14:26;19.47;;;7.53;;
4307;SDS011;2167;53.448;9.984;2023-04-08T11:16:53;12.50;;;6.40;;
4307;SDS011;2167;53.448;9.984;2023-04-08T11:19:18;14.33;;;6.27;;
4307;SDS011;2167;53.448;9.984;2023-04-08T11:21:44;15.07;;;5.90;;
4307;SDS011;2167;53.448;9.984;2023-04-08T11:24:11;15.43;;;8.60;;
4307;SDS011;2167;53.448;9.984;2023-04-08T11:26:37;11.97;;;7.00;;
4307;SDS011;2167;53.448;9.984;2023-04-08T11:29:03;12.67;;;6.10;;
4307;SDS011;2167;53.448;9.984;2023-04-08T11:31:33;18.70;;;6.87;;
4307;SDS011;2167;53.448;9.984;2023-04-08T11:34:02;11.47;;;6.97;;
4307;SDS011;2167;53.448;9.984;2023-04-08T11:36:34;9.00;;;5.93;;
4307;SDS011;2167;53.448;9.984;2023-04-08T11:39:08;12.43;;;7.40;;
4307;SDS011;2167;53.448;9.984;2023-04-08T11:41:35;14.83;;;7.60;;
4307;SDS011;2167;53.448;9.984;2023-04-08T11:44:02;19.47;;;7.63;;
4307;SDS011;2167;53.448;9.984;2023-04-08T11:46:27;10.87;;;5.83;;
4307;SDS011;2167;53.448;9.984;2023-04-08T11:49:00;13.43;;;6.67;;
4307;SDS011;2167;53.448;9.984;2023-04-08T11:51:30;21.20;;;8.80;;
4307;SDS011;2167;53.448;9.984;2023-04-08T11:53:58;15.90;;;8.10;;
4307;SDS011;2167;53.448;9.984;2023-04-08T11:56:23;10.37;;;6.13;;
4307;SDS011;2167;53.448;9.984;2023-04-08T11:58:50;14.10;;;7.60;;
4307;SDS011;2167;53.448;9.984;2023-04-08T12:01:16;13.10;;;7.10;;
4307;SDS011;2167;53.448;9.984;2023-04-08T12:03:52;8.50;;;5.37;;
4307;SDS011;2167;53.448;9.984;2023-04-08T12:06:18;11.70;;;6.60;;
4307;SDS011;2167;53.448;9.984;2023-04-08T12:08:44;12.57;;;7.40;;
4307;SDS011;2167;53.448;9.984;2023-04-08T12:11:10;16.30;;;6.80;;
4307;SDS011;2167;53.448;9.984;2023-04-08T12:13:36;15.23;;;6.63;;
4307;SDS011;2167;53.448;9.984;2023-04-08T12:16:02;13.50;;;6.80;;
4307;SDS011;2167;53.448;9.984;2023-04-08T12:18:27;15.20;;;6.67;;
4307;SDS011;2167;53.448;9.984;2023-04-08T12:20:53;13.73;;;7.40;;
4307;SDS011;2167;53.448;9.984;2023-04-08T12:23:18;16.50;;;8.63;;
4307;SDS011;2167;53.448;9.984;2023-04-08T12:25:44;11.20;;;6.87;;
4307;SDS011;2167;53.448;9.984;2023-04-08T12:28:10;10.73;;;6.03;;
4307;SDS011;2167;53.448;9.984;2023-04-08T12:30:36;11.73;;;6.47;;
4307;SDS011;2167;53.448;9.984;2023-04-08T12:33:02;14.80;;;6.57;;
4307;SDS011;2167;53.448;9.984;2023-04-08T12:35:27;13.63;;;7.70;;
4307;SDS011;2167;53.448;9.984;2023-04-08T12:37:53;14.93;;;8.00;;
4307;SDS011;2167;53.448;9.984;2023-04-08T12:40:21;16.23;;;7.90;;
4307;SDS011;2167;53.448;9.984;2023-04-08T12:42:47;19.07;;;8.87;;
4307;SDS011;2167;53.448;9.984;2023-04-08T12:45:12;14.53;;;8.53;;
4307;SDS011;2167;53.448;9.984;2023-04-08T12:47:38;22.97;;;9.20;;
4307;SDS011;2167;53.448;9.984;2023-04-08T12:50:03;14.67;;;7.77;;
4307;SDS011;2167;53.448;9.984;2023-04-08T12:52:29;12.70;;;8.63;;
4307;SDS011;2167;53.448;9.984;2023-04-08T12:54:55;13.07;;;8.80;;
4307;SDS011;2167;53.448;9.984;2023-04-08T12:57:21;18.87;;;9.27;;
4307;SDS011;2167;53.448;9.984;2023-04-08T12:59:46;14.20;;;7.97;;
4307;SDS011;2167;53.448;9.984;2023-04-08T13:02:12;14.70;;;7.90;;
4307;SDS011;2167;53.448;9.984;2023-04-08T13:04:38;14.00;;;8.27;;
4307;SDS011;2167;53.448;9.984;2023-04-08T13:07:06;14.13;;;6.80;;
4307;SDS011;2167;53.448;9.984;2023-04-08T13:09:32;19.10;;;8.90;;
4307;SDS011;2167;53.448;9.984;2023-04-08T13:11:57;20.53;;;9.27;;
4307;SDS011;2167;53.448;9.984;2023-04-08T13:14:23;18.73;;;9.37;;
4307;SDS011;2167;53.448;9.984;2023-04-08T13:16:49;14.47;;;8.93;;
4307;SDS011;2167;53.448;9.984;2023-04-08T13:19:15;16.77;;;8.50;;
4307;SDS011;2167;53.448;9.984;2023-04-08T13:21:41;16.90;;;8.70;;
4307;SDS011;2167;53.448;9.984;2023-04-08T13:24:06;15.83;;;8.83;;
4307;SDS011;2167;53.448;9.984;2023-04-08T13:26:32;19.43;;;8.13;;
4307;SDS011;2167;53.448;9.984;2023-04-08T13:28:57;14.50;;;8.40;;
4307;SDS011;2167;53.448;9.984;2023-04-08T13:31:23;21.33;;;9.03;;
4307;SDS011;2167;53.448;9.984;2023-04-08T13:33:49;14.70;;;8.53;;
4307;SDS011;2167;53.448;9.984;2023-04-08T13:36:15;21.20;;;7.70;;
4307;SDS011;2167;53.448;9.984;2023-04-08T13:38:40;15.70;;;9.00;;
4307;SDS011;2167;53.448;9.984;2023-04-08T13:41:06;17.20;;;8.70;;
4307;SDS011;2167;53.448;9.984;2023-04-08T13:43:35;16.50;;;9.30;;
4307;SDS011;2167;53.448;9.984;2023-04-08T13:46:00;18.70;;;9.70;;
4307;SDS011;2167;53.448;9.984;2023-04-08T13:48:26;14.60;;;9.20;;
4307;SDS011;2167;53.448;9.984;2023-04-08T13:50:51;14.77;;;8.20;;
4307;SDS011;2167;53.448;9.984;2023-04-08T13:53:17;16.30;;;8.83;;
4307;SDS011;2167;53.448;9.984;2023-04-08T13:55:42;19.23;;;10.15;;
4307;SDS011;2167;53.448;9.984;2023-04-08T13:58:08;19.00;;;9.80;;
4307;SDS011;2167;53.448;9.984;2023-04-08T14:00:34;19.77;;;10.80;;
4307;SDS011;2167;53.448;9.984;2023-04-08T14:02:59;14.50;;;9.20;;
4307;SDS011;2167;53.448;9.984;2023-04-08T14:05:25;14.87;;;7.70;;
4307;SDS011;2167;53.448;9.984;2023-04-08T14:07:51;19.30;;;10.30;;
4307;SDS011;2167;53.448;9.984;2023-04-08T14:10:17;16.50;;;8.80;;
4307;SDS011;2167;53.448;9.984;2023-04-08T14:12:42;14.60;;;9.03;;
4307;SDS011;2167;53.448;9.984;2023-04-08T14:15:08;18.10;;;9.43;;
4307;SDS011;2167;53.448;9.984;2023-04-08T14:17:34;16.33;;;8.40;;
4307;SDS011;2167;53.448;9.984;2023-04-08T14:20:00;16.30;;;9.50;;
4307;SDS011;2167;53.448;9.984;2023-04-08T14:22:26;16.80;;;8.20;;
4307;SDS011;2167;53.448;9.984;2023-04-08T14:24:51;16.93;;;9.77;;
4307;SDS011;2167;53.448;9.984;2023-04-08T14:27:17;22.63;;;13.13;;
4307;SDS011;2167;53.448;9.984;2023-04-08T14:29:42;18.57;;;10.40;;
4307;SDS011;2167;53.448;9.984;2023-04-08T14:32:08;17.50;;;10.53;;
4307;SDS011;2167;53.448;9.984;2023-04-08T14:34:34;20.83;;;11.63;;
4307;SDS011;2167;53.448;9.984;2023-04-08T14:36:59;23.90;;;12.27;;
4307;SDS011;2167;53.448;9.984;2023-04-08T14:39:25;22.30;;;11.60;;
4307;SDS011;2167;53.448;9.984;2023-04-08T14:41:51;20.67;;;12.10;;
4307;SDS011;2167;53.448;9.984;2023-04-08T14:44:16;15.93;;;8.80;;
4307;SDS011;2167;53.448;9.984;2023-04-08T14:46:42;19.03;;;9.80;;
4307;SDS011;2167;53.448;9.984;2023-04-08T14:49:07;23.20;;;10.40;;
4307;SDS011;2167;53.448;9.984;2023-04-08T14:51:33;22.00;;;11.47;;
4307;SDS011;2167;53.448;9.984;2023-04-08T14:54:01;24.77;;;12.13;;
4307;SDS011;2167;53.448;9.984;2023-04-08T14:56:27;26.70;;;12.67;;
4307;SDS011;2167;53.448;9.984;2023-04-08T14:58:52;19.03;;;10.87;;
4307;SDS011;2167;53.448;9.984;2023-04-08T15:01:18;19.83;;;10.77;;
4307;SDS011;2167;53.448;9.984;2023-04-08T15:03:44;24.00;;;12.00;;
4307;SDS011;2167;53.448;9.984;2023-04-08T15:06:11;18.77;;;11.37;;
4307;SDS011;2167;53.448;9.984;2023-04-08T15:08:40;18.33;;;10.10;;
4307;SDS011;2167;53.448;9.984;2023-04-08T15:11:07;25.10;;;11.80;;
4307;SDS011;2167;53.448;9.984;2023-04-08T15:13:33;20.40;;;10.80;;
4307;SDS011;2167;53.448;9.984;2023-04-08T15:16:00;14.40;;;10.20;;
4307;SDS011;2167;53.448;9.984;2023-04-08T15:18:26;21.83;;;12.83;;
4307;SDS011;2167;53.448;9.984;2023-04-08T15:20:51;19.97;;;11.40;;
4307;SDS011;2167;53.448;9.984;2023-04-08T15:23:17;20.40;;;11.50;;
4307;SDS011;2167;53.448;9.984;2023-04-08T15:25:43;26.83;;;13.47;;
4307;SDS011;2167;53.448;9.984;2023-04-08T15:28:08;29.50;;;14.30;;
4307;SDS011;2167;53.448;9.984;2023-04-08T15:30:34;23.00;;;12.17;;